Time;durP1;ratioP1;P1;durP2;ratioP2;P2;SDS_P1;SDS_P2;PMS_P1;PMS_P2;Temp;Humidity;BMP_temperature;BMP_pressure;BME280_temperature;BME280_humidity;BME280_pressure;Samples;Min_cycle;Max_cycle;Signal;HPM_P1;HPM_P2
2021/04/25 00:00:41;;;;;;;;;;;;;;;27.45;29.17;101298.66;5099481;28;834;-35
2021/04/25 00:03:06;;;;;;;;;;;;;;;27.96;28.29;101296.69;5098336;28;973;-37
2021/04/25 00:05:32;;;;;;;;;;;;;;;27.90;28.02;101286.56;5098911;28;826;-36
2021/04/25 00:07:57;;;;;;;;;;;;;;;27.58;28.35;101283.78;5099145;28;1963;-36
2021/04/25 00:10:22;;;;;;;;;;;;;;;27.42;28.92;101290.91;5099160;28;813;-36
2021/04/25 00:12:47;;;;;;;;;;;;;;;27.79;28.55;101285.94;5112307;28;1103;-36
2021/04/25 00:15:17;;;;;;;;;;;;;;;28.01;27.88;101285.34;5119575;28;735;-36
2021/04/25 00:17:42;;;;;;;;;;;;;;;27.75;28.11;101292.72;5093376;28;1552;-36
2021/04/25 00:20:08;;;;;;;;;;;;;;;27.51;28.65;101295.28;5078802;28;819;-36
2021/04/25 00:22:33;;;;;;;;;;;;;;;27.50;28.82;101293.59;5078456;28;874;-36
2021/04/25 00:24:59;;;;;;;;;;;;;;;27.92;28.23;101285.38;5078757;28;747;-35
2021/04/25 00:27:25;;;;;;;;;;;;;;;27.83;28.44;101289.13;5078385;28;1910;-37
2021/04/25 00:29:50;;;;;;;;;;;;;;;27.49;29.00;101299.19;5078584;28;763;-35
2021/04/25 00:32:15;;;;;;;;;;;;;;;27.33;29.17;101297.34;5087359;28;1017;-35
2021/04/25 00:34:41;;;;;;;;;;;;;;;27.75;28.48;101293.56;5098496;28;753;-36
2021/04/25 00:37:06;;;;;;;;;;;;;;;27.91;28.40;101291.78;5098752;28;748;-36
2021/04/25 00:39:31;;;;;;;;;;;;;;;27.61;28.66;101286.97;5098900;28;749;-36
2021/04/25 00:41:56;;;;;;;;;;;;;;;27.30;29.45;101282.31;5098380;28;728;-35
2021/04/25 00:44:22;;;;;;;;;;;;;;;27.72;28.85;101287.66;5098456;28;1167;-35
2021/04/25 00:46:47;;;;;;;;;;;;;;;27.91;28.46;101283.69;5096890;28;1913;-36
2021/04/25 00:49:12;;;;;;;;;;;;;;;27.66;28.71;101270.22;5098230;28;581;-36
2021/04/25 00:51:38;;;;;;;;;;;;;;;27.44;29.04;101271.84;5098435;28;812;-35
2021/04/25 00:54:03;;;;;;;;;;;;;;;27.62;29.00;101282.41;5098416;28;751;-37
2021/04/25 00:56:28;;;;;;;;;;;;;;;27.96;28.48;101280.47;5098714;28;743;-36
2021/04/25 00:58:54;;;;;;;;;;;;;;;27.82;28.21;101276.63;5097024;28;893;-35
2021/04/25 01:01:19;;;;;;;;;;;;;;;27.42;29.22;101276.56;5096714;28;965;-36
2021/04/25 01:03:44;;;;;;;;;;;;;;;27.45;29.15;101268.94;5097980;28;766;-36
2021/04/25 01:06:10;;;;;;;;;;;;;;;27.94;28.25;101271.69;5098158;28;732;-37
2021/04/25 01:08:35;;;;;;;;;;;;;;;27.91;28.40;101263.94;5097925;28;1909;-36
2021/04/25 01:11:00;;;;;;;;;;;;;;;27.69;28.78;101261.84;5096608;28;1253;-36
2021/04/25 01:13:26;;;;;;;;;;;;;;;27.49;28.82;101258.66;5116322;28;1244;-37
2021/04/25 01:15:51;;;;;;;;;;;;;;;27.80;28.46;101255.19;5118098;28;798;-36
2021/04/25 01:18:16;;;;;;;;;;;;;;;28.09;27.88;101253.69;5099262;28;957;-36
2021/04/25 01:20:41;;;;;;;;;;;;;;;27.85;28.56;101260.91;5097828;28;838;-35
2021/04/25 01:23:07;;;;;;;;;;;;;;;27.45;28.90;101254.59;5097400;28;862;-35
2021/04/25 01:25:32;;;;;;;;;;;;;;;27.44;29.08;101248.38;5097671;28;786;-36
2021/04/25 01:27:57;;;;;;;;;;;;;;;27.86;28.83;101250.94;5097594;28;1905;-37
2021/04/25 01:30:27;;;;;;;;;;;;;;;27.98;28.17;101252.22;5097961;28;798;-36
2021/04/25 01:32:52;;;;;;;;;;;;;;;27.74;28.49;101259.41;5096772;28;942;-38
2021/04/25 01:35:21;;;;;;;;;;;;;;;27.42;29.39;101261.19;5097649;28;731;-35
2021/04/25 01:37:48;;;;;;;;;;;;;;;27.48;29.35;101263.19;5096191;28;750;-35
2021/04/25 01:40:13;;;;;;;;;;;;;;;27.94;28.39;101259.03;5097834;28;771;-36
2021/04/25 01:42:39;;;;;;;;;;;;;;;27.93;28.05;101268.13;5097521;28;743;-36
2021/04/25 01:45:04;;;;;;;;;;;;;;;27.65;28.75;101268.56;5097180;28;1292;-36
2021/04/25 01:47:30;;;;;;;;;;;;;;;27.37;29.06;101261.72;5096100;28;1971;-34
2021/04/25 01:49:55;;;;;;;;;;;;;;;27.87;28.62;101258.03;5097404;28;782;-37
2021/04/25 01:52:20;;;;;;;;;;;;;;;28.04;28.18;101257.94;5097557;28;847;-37
2021/04/25 01:54:45;;;;;;;;;;;;;;;27.69;28.82;101253.72;5097267;28;923;-37
2021/04/25 01:57:11;;;;;;;;;;;;;;;27.47;29.08;101249.88;5097222;28;729;-36
2021/04/25 01:59:36;;;;;;;;;;;;;;;27.48;29.03;101255.09;5097383;28;802;-35
2021/04/25 02:02:01;;;;;;;;;;;;;;;27.91;28.60;101251.25;5091770;28;1084;-36
2021/04/25 02:04:27;;;;;;;;;;;;;;;27.92;28.54;101244.84;5076932;28;719;-35
2021/04/25 02:06:52;;;;;;;;;;;;;;;27.54;28.78;101244.59;5075127;28;1968;-35
2021/04/25 02:09:17;;;;;;;;;;;;;;;27.36;29.35;101243.81;5076834;28;827;-35
2021/04/25 02:11:43;;;;;;;;;;;;;;;27.69;29.20;101250.16;5085508;28;1135;-37
2021/04/25 02:14:08;;;;;;;;;;;;;;;28.03;28.36;101246.28;5117261;28;831;-36
2021/04/25 02:16:34;;;;;;;;;;;;;;;27.93;28.11;101240.25;5112776;28;1055;-36
2021/04/25 02:18:59;;;;;;;;;;;;;;;27.47;29.00;101247.16;5096662;28;791;-36
2021/04/25 02:21:24;;;;;;;;;;;;;;;27.36;29.46;101243.81;5096724;28;798;-36
2021/04/25 02:23:50;;;;;;;;;;;;;;;27.90;28.90;101237.91;5096699;28;858;-36
2021/04/25 02:26:15;;;;;;;;;;;;;;;28.16;28.42;101231.34;5097024;28;802;-37
2021/04/25 02:28:40;;;;;;;;;;;;;;;27.91;28.61;101239.59;5100828;28;1992;-36
2021/04/25 02:31:06;;;;;;;;;;;;;;;27.45;28.98;101241.94;5101192;28;731;-36
2021/04/25 02:33:31;;;;;;;;;;;;;;;27.35;29.48;101238.56;5100686;28;954;-36
2021/04/25 02:35:56;;;;;;;;;;;;;;;27.89;28.95;101239.78;5100868;28;858;-36
2021/04/25 02:38:22;;;;;;;;;;;;;;;28.01;28.40;101234.78;5100964;28;842;-36
2021/04/25 02:40:47;;;;;;;;;;;;;;;27.69;28.78;101225.84;5100951;28;803;-36
2021/04/25 02:43:12;;;;;;;;;;;;;;;27.43;29.41;101227.75;5101042;28;819;-36
2021/04/25 02:45:37;;;;;;;;;;;;;;;27.53;29.55;101227.53;5100718;28;1530;-36
2021/04/25 02:48:06;;;;;;;;;;;;;;;27.97;28.86;101218.09;5100078;28;1980;-37
2021/04/25 02:50:41;;;;;;;;;;;;;;;28.08;28.32;101227.66;5100679;28;752;-36
2021/04/25 02:53:07;;;;;;;;;;;;;;;27.68;28.94;101230.41;5100395;28;854;-36
2021/04/25 02:55:32;;;;;;;;;;;;;;;27.47;28.98;101226.41;5100576;28;768;-38
2021/04/25 02:57:57;;;;;;;;;;;;;;;27.58;29.20;101227.88;5100429;28;801;-37
2021/04/25 03:00:23;;;;;;;;;;;;;;;27.94;28.87;101223.03;5100646;28;886;-36
2021/04/25 03:02:49;;;;;;;;;;;;;;;28.03;28.10;101213.00;5100177;28;994;-35
2021/04/25 03:05:14;;;;;;;;;;;;;;;27.60;28.79;101225.84;5100065;28;779;-36
2021/04/25 03:07:39;;;;;;;;;;;;;;;27.42;29.18;101219.81;5098747;28;1963;-36
2021/04/25 03:10:05;;;;;;;;;;;;;;;27.79;28.71;101223.78;5100211;28;810;-37
2021/04/25 03:12:30;;;;;;;;;;;;;;;27.86;28.01;101222.03;5111275;28;1134;-35
2021/04/25 03:14:56;;;;;;;;;;;;;;;26.59;26.14;101215.34;5120711;28;797;-39
2021/04/25 03:17:21;;;;;;;;;;;;;;;26.01;26.61;101219.59;5111398;28;925;-39
2021/04/25 03:19:46;;;;;;;;;;;;;;;25.58;25.98;101213.34;5120537;28;755;-38
2021/04/25 03:22:11;;;;;;;;;;;;;;;25.27;25.47;101212.88;5120313;28;540;-38
2021/04/25 03:24:37;;;;;;;;;;;;;;;25.09;26.95;101217.47;5119922;28;834;-34
2021/04/25 03:27:02;;;;;;;;;;;;;;;26.34;27.23;101218.03;5120871;28;1905;-33
2021/04/25 03:29:27;;;;;;;;;;;;;;;26.34;28.08;101226.13;5120361;28;749;-33
2021/04/25 03:31:53;;;;;;;;;;;;;;;26.16;28.35;101227.91;5113193;28;945;-37
2021/04/25 03:34:18;;;;;;;;;;;;;;;26.07;28.59;101231.59;5100480;28;899;-34
2021/04/25 03:36:43;;;;;;;;;;;;;;;26.36;28.07;101235.72;5099895;28;854;-35
2021/04/25 03:39:09;;;;;;;;;;;;;;;26.76;27.77;101241.31;5099784;28;779;-33
2021/04/25 03:41:34;;;;;;;;;;;;;;;26.51;27.92;101235.91;5099937;28;759;-36
2021/04/25 03:43:59;;;;;;;;;;;;;;;25.73;25.15;101235.16;5099648;28;1289;-49
2021/04/25 03:46:25;;;;;;;;;;;;;;;23.90;27.56;101235.28;5098300;28;1549;-37
2021/04/25 03:48:50;;;;;;;;;;;;;;;23.19;27.94;101237.50;5099372;28;1906;-32
2021/04/25 03:51:15;;;;;;;;;;;;;;;24.29;25.83;101236.09;5119958;28;838;-36
2021/04/25 03:53:41;;;;;;;;;;;;;;;24.60;25.30;101232.16;5118349;28;1398;-33
2021/04/25 03:56:06;;;;;;;;;;;;;;;25.00;25.54;101235.38;5087852;28;731;-42
2021/04/25 03:58:31;;;;;;;;;;;;;;;25.48;24.52;101238.56;5082226;28;759;-38
2021/04/25 04:00:56;;;;;;;;;;;;;;;25.35;24.26;101233.59;5090485;28;1280;-35
2021/04/25 04:03:22;;;;;;;;;;;;;;;24.38;25.11;101231.63;5087613;28;1226;-47
2021/04/25 04:05:47;;;;;;;;;;;;;;;23.20;26.39;101237.34;5085134;28;1406;-44
2021/04/25 04:08:12;;;;;;;;;;;;;;;23.02;27.06;101239.94;5101643;28;1905;-33
2021/04/25 04:10:38;;;;;;;;;;;;;;;22.97;26.90;101234.13;5079041;28;835;-43
2021/04/25 04:13:03;;;;;;;;;;;;;;;22.73;27.08;101230.03;5110065;28;1147;-28
2021/04/25 04:15:28;;;;;;;;;;;;;;;22.80;27.35;101236.56;5119450;28;810;-38
2021/04/25 04:17:53;;;;;;;;;;;;;;;22.61;27.46;101245.44;5102496;28;855;-30
2021/04/25 04:20:19;;;;;;;;;;;;;;;22.61;27.41;101243.59;5099109;28;779;-42
2021/04/25 04:22:44;;;;;;;;;;;;;;;22.56;27.14;101244.97;5098601;28;824;-41
2021/04/25 04:25:09;;;;;;;;;;;;;;;22.41;27.35;101239.16;5099268;28;810;-44
2021/04/25 04:27:35;;;;;;;;;;;;;;;22.19;27.97;101239.28;5089451;28;1874;-41
2021/04/25 04:30:00;;;;;;;;;;;;;;;22.23;27.91;101240.69;5078916;28;740;-44
2021/04/25 04:32:25;;;;;;;;;;;;;;;22.15;28.40;101245.91;5088577;28;954;-41
2021/04/25 04:34:51;;;;;;;;;;;;;;;22.00;28.95;101250.78;5098502;28;822;-41
2021/04/25 04:37:16;;;;;;;;;;;;;;;21.87;29.30;101251.03;5095681;28;862;-41
2021/04/25 04:39:41;;;;;;;;;;;;;;;21.94;29.46;101246.81;5078162;28;844;-38
2021/04/25 04:42:07;;;;;;;;;;;;;;;21.90;29.85;101248.91;5078183;28;784;-38
2021/04/25 04:44:32;;;;;;;;;;;;;;;22.02;29.68;101238.94;5093833;28;1270;-42
2021/04/25 04:46:57;;;;;;;;;;;;;;;21.96;29.38;101241.31;5089362;28;1973;-35
2021/04/25 04:49:22;;;;;;;;;;;;;;;22.14;29.13;101233.47;5097636;28;767;-42
2021/04/25 04:51:48;;;;;;;;;;;;;;;21.98;29.55;101244.72;5098511;28;815;-42
2021/04/25 04:54:13;;;;;;;;;;;;;;;21.99;30.06;101247.25;5098123;28;792;-38
2021/04/25 04:56:38;;;;;;;;;;;;;;;22.07;29.92;101237.69;5096936;28;886;-43
2021/04/25 04:59:04;;;;;;;;;;;;;;;22.20;29.97;101235.63;5098201;28;774;-39
2021/04/25 05:01:29;;;;;;;;;;;;;;;22.09;29.77;101235.72;5097749;28;958;-39
2021/04/25 05:03:54;;;;;;;;;;;;;;;22.06;29.78;101230.63;5097680;28;811;-41
2021/04/25 05:06:20;;;;;;;;;;;;;;;22.00;29.94;101222.16;5098188;28;779;-40
2021/04/25 05:08:45;;;;;;;;;;;;;;;22.41;28.99;101215.88;5097947;28;1909;-35
2021/04/25 05:11:10;;;;;;;;;;;;;;;22.82;28.61;101221.13;5097902;28;759;-44
2021/04/25 05:13:35;;;;;;;;;;;;;;;23.14;27.85;101227.16;5118025;28;1218;-32
2021/04/25 05:16:01;;;;;;;;;;;;;;;23.56;27.44;101233.16;5118317;28;794;-36
2021/04/25 05:18:26;;;;;;;;;;;;;;;23.35;27.64;101228.81;5098165;28;1004;-44
2021/04/25 05:20:51;;;;;;;;;;;;;;;23.33;27.55;101220.06;5097914;28;752;-36
2021/04/25 05:23:17;;;;;;;;;;;;;;;23.43;27.18;101212.88;5097821;28;782;-34
2021/04/25 05:25:42;;;;;;;;;;;;;;;23.57;27.11;101216.91;5098014;28;801;-36
2021/04/25 05:28:07;;;;;;;;;;;;;;;23.50;27.01;101213.13;5097603;28;1972;-39
2021/04/25 05:30:32;;;;;;;;;;;;;;;23.52;27.05;101213.84;5097370;28;1537;-35
2021/04/25 05:32:58;;;;;;;;;;;;;;;23.37;27.33;101210.75;5096813;28;1035;-36
2021/04/25 05:35:23;;;;;;;;;;;;;;;23.45;27.27;101220.78;5097730;28;756;-34
2021/04/25 05:37:48;;;;;;;;;;;;;;;23.56;26.77;101222.41;5097569;28;818;-35
2021/04/25 05:40:14;;;;;;;;;;;;;;;23.47;26.60;101218.78;5097569;28;772;-32
2021/04/25 05:42:39;;;;;;;;;;;;;;;23.68;25.92;101213.19;5097474;28;844;-34
2021/04/25 05:45:07;;;;;;;;;;;;;;;23.70;25.78;101218.41;5097140;28;1312;-37
2021/04/25 05:47:32;;;;;;;;;;;;;;;23.66;25.77;101227.75;5096192;28;1913;-35
2021/04/25 05:49:57;;;;;;;;;;;;;;;23.48;25.97;101223.16;5097441;28;795;-35
2021/04/25 05:52:23;;;;;;;;;;;;;;;23.44;25.86;101224.47;5097298;28;862;-37
2021/04/25 05:54:48;;;;;;;;;;;;;;;23.31;26.18;101225.59;5097184;28;795;-32
2021/04/25 05:57:13;;;;;;;;;;;;;;;23.42;26.30;101221.91;5097204;28;735;-35
2021/04/25 05:59:38;;;;;;;;;;;;;;;23.41;26.17;101216.66;5097185;28;886;-32
2021/04/25 06:02:07;;;;;;;;;;;;;;;23.52;26.16;101219.19;5096194;28;993;-39
2021/04/25 06:04:32;;;;;;;;;;;;;;;23.37;26.42;101226.84;5097231;28;775;-34
2021/04/25 06:06:58;;;;;;;;;;;;;;;23.62;26.16;101224.53;5096967;28;1905;-35
2021/04/25 06:09:23;;;;;;;;;;;;;;;23.52;25.85;101224.56;5096955;28;826;-41
2021/04/25 06:11:48;;;;;;;;;;;;;;;23.38;26.06;101223.16;5102098;28;1135;-38
2021/04/25 06:14:14;;;;;;;;;;;;;;;23.48;26.05;101232.06;5117348;28;806;-40
2021/04/25 06:16:39;;;;;;;;;;;;;;;23.39;25.41;101227.53;5112096;28;949;-36
2021/04/25 06:19:04;;;;;;;;;;;;;;;23.27;25.55;101228.72;5096685;28;1404;-37
2021/04/25 06:21:30;;;;;;;;;;;;;;;22.29;26.03;101086.53;5096811;28;891;-38
2021/04/25 06:23:55;;;;;;;;;;;;;;;23.25;25.62;101226.16;5097279;28;836;-36
2021/04/25 06:26:20;;;;;;;;;;;;;;;23.29;24.69;101230.25;5096683;28;835;-37
2021/04/25 06:28:46;;;;;;;;;;;;;;;23.19;24.59;101234.81;5096557;28;1964;-41
2021/04/25 06:31:11;;;;;;;;;;;;;;;23.24;24.31;101236.06;5096747;28;1006;-34
2021/04/25 06:33:36;;;;;;;;;;;;;;;23.29;24.21;101234.78;5095465;28;991;-37
2021/04/25 06:36:02;;;;;;;;;;;;;;;23.51;24.52;101243.50;5096694;28;882;-33
2021/04/25 06:38:27;;;;;;;;;;;;;;;23.69;24.21;101240.91;5096761;28;799;-35
2021/04/25 06:40:52;;;;;;;;;;;;;;;23.56;23.72;101249.28;5096837;28;842;-40
2021/04/25 06:43:18;;;;;;;;;;;;;;;23.36;23.68;101235.88;5096677;28;825;-37
2021/04/25 06:45:43;;;;;;;;;;;;;;;23.38;24.89;101236.59;5090193;28;1444;-40
2021/04/25 06:48:09;;;;;;;;;;;;;;;23.58;24.93;101242.78;5082001;28;1982;-40
2021/04/25 06:50:34;;;;;;;;;;;;;;;23.43;23.17;101236.19;5076233;28;835;-41
2021/04/25 06:52:59;;;;;;;;;;;;;;;23.47;23.35;101245.66;5076529;28;811;-34
2021/04/25 06:55:25;;;;;;;;;;;;;;;23.45;23.06;101251.16;5076472;28;763;-36
2021/04/25 06:57:50;;;;;;;;;;;;;;;23.56;23.11;101249.28;5076389;28;786;-38
2021/04/25 07:00:16;;;;;;;;;;;;;;;23.41;23.75;101259.63;5076140;28;828;-36
2021/04/25 07:02:41;;;;;;;;;;;;;;;23.47;24.16;101254.53;5088920;28;1002;-37
2021/04/25 07:05:07;;;;;;;;;;;;;;;23.50;23.15;101245.34;5096372;28;787;-38
2021/04/25 07:07:32;;;;;;;;;;;;;;;23.72;24.29;101248.66;5096462;28;1897;-37
2021/04/25 07:09:58;;;;;;;;;;;;;;;23.66;24.20;101252.78;5096573;28;806;-37
2021/04/25 07:12:24;;;;;;;;;;;;;;;23.74;23.91;101254.72;5106708;28;1091;-36
2021/04/25 07:14:49;;;;;;;;;;;;;;;23.88;24.34;101249.84;5120800;28;754;-34
2021/04/25 07:17:14;;;;;;;;;;;;;;;23.94;23.77;101252.78;5110866;28;1008;-40
2021/04/25 07:19:40;;;;;;;;;;;;;;;23.87;23.96;101245.47;5100025;28;763;-41
2021/04/25 07:22:05;;;;;;;;;;;;;;;23.78;23.96;101255.28;5100212;28;857;-38
2021/04/25 07:24:30;;;;;;;;;;;;;;;23.86;23.29;101244.63;5100230;28;779;-37
2021/04/25 07:26:55;;;;;;;;;;;;;;;23.84;23.19;101244.78;5099928;28;2372;-36
2021/04/25 07:29:21;;;;;;;;;;;;;;;23.83;23.48;101245.78;5100097;28;878;-35
2021/04/25 07:31:46;;;;;;;;;;;;;;;23.82;23.48;101238.69;5099620;28;954;-37
2021/04/25 07:34:12;;;;;;;;;;;;;;;23.88;23.35;101245.34;5099665;28;820;-36
2021/04/25 07:36:37;;;;;;;;;;;;;;;23.93;23.72;101240.34;5099991;28;807;-36
2021/04/25 07:39:03;;;;;;;;;;;;;;;23.92;23.17;101237.81;5099814;28;759;-39
2021/04/25 07:41:29;;;;;;;;;;;;;;;23.90;22.47;101239.81;5099333;28;1023;-40
2021/04/25 07:43:54;;;;;;;;;;;;;;;23.79;22.41;101244.38;5099790;28;1083;-38
2021/04/25 07:46:20;;;;;;;;;;;;;;;23.99;22.99;101230.84;5098532;28;1640;-35
2021/04/25 07:48:45;;;;;;;;;;;;;;;24.01;22.91;101233.38;5099427;28;1988;-38
2021/04/25 07:51:11;;;;;;;;;;;;;;;24.16;23.05;101231.03;5099721;28;751;-38
2021/04/25 07:53:36;;;;;;;;;;;;;;;24.00;22.56;101231.69;5099513;28;832;-36
2021/04/25 07:56:02;;;;;;;;;;;;;;;24.01;22.36;101226.16;5099091;28;852;-36
2021/04/25 07:58:27;;;;;;;;;;;;;;;23.99;21.96;101217.41;5099502;28;747;-37
2021/04/25 08:00:52;;;;;;;;;;;;;;;24.09;21.84;101211.97;5099639;28;787;-37
2021/04/25 08:03:18;;;;;;;;;;;;;;;24.15;22.12;101219.44;5098644;28;946;-32
2021/04/25 08:05:43;;;;;;;;;;;;;;;24.20;21.94;101210.97;5099367;28;854;-41
2021/04/25 08:08:08;;;;;;;;;;;;;;;24.30;21.83;101209.06;5098961;28;1930;-36
2021/04/25 08:10:34;;;;;;;;;;;;;;;24.22;21.77;101217.03;5098953;28;866;-40
2021/04/25 08:12:59;;;;;;;;;;;;;;;24.25;23.14;101203.28;5114114;28;1182;-33
2021/04/25 08:15:24;;;;;;;;;;;;;;;24.16;22.66;101210.41;5119456;28;755;-36
2021/04/25 08:17:50;;;;;;;;;;;;;;;24.28;23.94;101211.03;5104219;28;1008;-36
2021/04/25 08:20:16;;;;;;;;;;;;;;;24.28;23.09;101212.88;5099044;28;1496;-34
2021/04/25 08:22:41;;;;;;;;;;;;;;;24.27;21.92;101220.13;5099136;28;767;-33
2021/04/25 08:25:07;;;;;;;;;;;;;;;24.19;20.62;101206.59;5098080;28;767;-34
2021/04/25 08:27:32;;;;;;;;;;;;;;;24.31;21.08;101199.13;5098820;28;1898;-32
2021/04/25 08:29:57;;;;;;;;;;;;;;;24.33;22.89;101210.56;5099014;28;772;-33
2021/04/25 08:32:22;;;;;;;;;;;;;;;24.35;23.62;101205.91;5098366;28;1052;-42
2021/04/25 08:34:48;;;;;;;;;;;;;;;24.38;21.04;101200.22;5098492;28;847;-32
2021/04/25 08:37:13;;;;;;;;;;;;;;;24.41;20.52;101201.72;5098733;28;771;-42
2021/04/25 08:39:38;;;;;;;;;;;;;;;24.45;20.33;101190.53;5098754;28;863;-34
2021/04/25 08:42:04;;;;;;;;;;;;;;;24.30;20.66;101192.06;5098678;28;751;-37
2021/04/25 08:44:29;;;;;;;;;;;;;;;24.26;20.35;101187.97;5098298;28;1299;-35
2021/04/25 08:46:54;;;;;;;;;;;;;;;24.24;20.63;101182.75;5093363;28;1980;-35
2021/04/25 08:49:24;;;;;;;;;;;;;;;24.26;20.99;101186.13;5078285;28;831;-39
2021/04/25 08:51:49;;;;;;;;;;;;;;;24.36;20.48;101180.69;5078010;28;819;-38
2021/04/25 08:54:15;;;;;;;;;;;;;;;24.22;20.28;101176.72;5077009;28;795;-37
2021/04/25 08:56:40;;;;;;;;;;;;;;;24.41;21.28;101178.38;5078444;28;783;-36
2021/04/25 08:59:05;;;;;;;;;;;;;;;24.35;21.31;101176.31;5077835;28;787;-36
2021/04/25 09:01:31;;;;;;;;;;;;;;;24.30;20.37;101174.09;5079109;28;966;-36
2021/04/25 09:03:56;;;;;;;;;;;;;;;24.25;20.83;101172.84;5098301;28;815;-42
2021/04/25 09:06:21;;;;;;;;;;;;;;;24.17;20.97;101166.38;5097985;28;762;-39
2021/04/25 09:08:57;;;;;;;;;;;;;;;24.36;21.59;101174.47;5091408;28;1914;-36
2021/04/25 09:11:25;;;;;;;;;;;;;;;24.38;21.90;101170.63;5097831;28;1114;-36
2021/04/25 09:14:10;;;;;;;;;;;;;;;24.45;22.15;101173.56;5097761;28;767;-35
2021/04/25 09:16:35;;;;;;;;;;;;;;;24.51;22.16;101167.53;5097456;28;1188;-37
2021/04/25 09:19:01;;;;;;;;;;;;;;;24.38;21.75;101165.25;5097438;28;987;-40
2021/04/25 09:21:26;;;;;;;;;;;;;;;24.45;21.91;101169.03;5097712;28;901;-33
2021/04/25 09:23:51;;;;;;;;;;;;;;;24.49;22.83;101153.41;5097621;28;783;-42
2021/04/25 09:26:17;;;;;;;;;;;;;;;24.48;24.01;101167.84;5097761;28;834;-33
2021/04/25 09:28:42;;;;;;;;;;;;;;;24.57;22.93;101166.09;5097630;28;1918;-33
2021/04/25 09:31:15;;;;;;;;;;;;;;;24.43;21.97;101162.09;5096232;28;1113;-35
2021/04/25 09:33:53;;;;;;;;;;;;;;;24.43;22.69;101159.41;5077209;28;934;-32
2021/04/25 09:36:20;;;;;;;;;;;;;;;24.32;21.56;101163.19;5077500;28;751;-34
2021/04/25 09:38:46;;;;;;;;;;;;;;;24.29;21.24;101161.63;5077279;28;799;-34
2021/04/25 09:41:27;;;;;;;;;;;;;;;24.36;19.76;101166.41;5077330;28;815;-34
2021/04/25 09:43:52;;;;;;;;;;;;;;;24.50;19.95;101162.31;5077196;28;1284;-44
2021/04/25 09:46:17;;;;;;;;;;;;;;;24.33;20.89;101146.91;5082726;28;1625;-35
2021/04/25 09:48:43;;;;;;;;;;;;;;;24.31;20.50;101145.34;5097339;28;1914;-40
2021/04/25 09:51:12;;;;;;;;;;;;;;;24.24;20.31;101157.72;5097408;28;774;-33
2021/04/25 09:53:58;;;;;;;;;;;;;;;24.37;20.76;101152.81;5096141;28;756;-39
2021/04/25 09:56:36;;;;;;;;;;;;;;;24.49;20.54;101152.56;5096800;28;1242;-36
2021/04/25 09:59:02;;;;;;;;;;;;;;;24.58;20.76;101149.78;5097281;28;771;-34
2021/04/25 10:01:31;;;;;;;;;;;;;;;24.60;19.92;101143.41;5096915;28;1005;-35
2021/04/25 10:03:56;;;;;;;;;;;;;;;24.33;20.80;101146.03;5097521;28;763;-37
2021/04/25 10:06:22;;;;;;;;;;;;;;;24.19;22.09;101145.59;5097510;28;732;-43
2021/04/25 10:08:49;;;;;;;;;;;;;;;24.16;22.55;101153.06;5096786;28;1902;-41
2021/04/25 10:11:15;;;;;;;;;;;;;;;24.15;22.26;101160.31;5097231;28;1173;-38
2021/04/25 10:13:45;;;;;;;;;;;;;;;23.96;22.70;101150.53;5117479;28;774;-38
2021/04/25 10:16:10;;;;;;;;;;;;;;;24.01;22.86;101150.91;5117281;28;853;-38
2021/04/25 10:18:36;;;;;;;;;;;;;;;23.83;22.88;101154.44;5096164;28;934;-35
2021/04/25 10:21:01;;;;;;;;;;;;;;;23.82;23.95;101154.59;5095506;28;886;-38
2021/04/25 10:23:26;;;;;;;;;;;;;;;23.58;24.37;101154.16;5097073;28;771;-38
2021/04/25 10:25:52;;;;;;;;;;;;;;;23.59;24.06;101161.22;5097020;28;739;-37
2021/04/25 10:28:28;;;;;;;;;;;;;;;23.74;24.58;101144.59;5095653;28;1906;-37
2021/04/25 10:30:56;;;;;;;;;;;;;;;23.81;24.91;101145.69;5095535;28;822;-37
2021/04/25 10:33:21;;;;;;;;;;;;;;;23.84;25.76;101144.53;5091836;28;987;-33
2021/04/25 10:35:53;;;;;;;;;;;;;;;23.90;25.47;101138.56;5076771;28;824;-38
2021/04/25 10:38:21;;;;;;;;;;;;;;;23.77;25.85;101132.72;5076415;28;776;-37
2021/04/25 10:40:50;;;;;;;;;;;;;;;23.95;26.21;101135.41;5075126;28;1335;-41
2021/04/25 10:43:18;;;;;;;;;;;;;;;23.98;26.16;101132.41;5076230;28;803;-37
2021/04/25 10:45:59;;;;;;;;;;;;;;;23.82;26.09;101141.16;5078001;28;1704;-37
2021/04/25 10:48:26;;;;;;;;;;;;;;;23.71;26.90;101132.31;5097573;28;1963;-38
2021/04/25 10:50:55;;;;;;;;;;;;;;;23.62;27.23;101145.78;5100755;28;790;-38
2021/04/25 10:53:24;;;;;;;;;;;;;;;23.23;27.33;101153.00;5100751;28;795;-37
2021/04/25 10:55:50;;;;;;;;;;;;;;;23.65;27.30;101140.13;5100838;28;778;-39
2021/04/25 10:58:18;;;;;;;;;;;;;;;23.64;27.59;101149.19;5100519;28;802;-37
2021/04/25 11:00:47;;;;;;;;;;;;;;;23.50;27.68;101145.16;5094239;28;1503;-46
2021/04/25 11:03:12;;;;;;;;;;;;;;;23.54;27.55;101144.69;5085938;28;938;-37
2021/04/25 11:05:40;;;;;;;;;;;;;;;23.04;28.50;101132.44;5080057;28;813;-43
2021/04/25 11:08:06;;;;;;;;;;;;;;;23.35;28.10;101133.03;5079962;28;1898;-37
2021/04/25 11:10:51;;;;;;;;;;;;;;;23.54;28.17;101119.69;5079891;28;1477;-37
2021/04/25 11:13:35;;;;;;;;;;;;;;;23.58;28.17;101113.88;5114446;28;1096;-40
2021/04/25 11:16:06;;;;;;;;;;;;;;;23.55;28.73;101127.59;5120463;28;822;-37
2021/04/25 11:18:46;;;;;;;;;;;;;;;23.72;28.05;101120.56;5099928;28;1068;-44
2021/04/25 11:21:30;;;;;;;;;;;;;;;23.65;28.25;101119.50;5100089;28;753;-38
2021/04/25 11:23:58;;;;;;;;;;;;;;;23.57;28.85;101122.91;5100225;28;767;-39
2021/04/25 11:29:10;;;;;;;;;;;;;;;23.35;29.11;101122.31;5100231;28;1964;-41
2021/04/25 11:31:48;;;;;;;;;;;;;;;23.27;28.70;101122.19;5099659;28;951;-42
2021/04/25 11:34:23;;;;;;;;;;;;;;;23.54;28.86;101114.31;5099462;28;824;-38
2021/04/25 11:36:48;;;;;;;;;;;;;;;23.64;28.77;101117.78;5099561;28;791;-39
2021/04/25 11:39:15;;;;;;;;;;;;;;;23.45;28.93;101105.31;5100218;28;775;-44
2021/04/25 11:41:42;;;;;;;;;;;;;;;23.60;28.64;101109.19;5098171;28;1275;-40
2021/04/25 11:44:07;;;;;;;;;;;;;;;23.57;28.90;101114.84;5098762;28;1090;-40
2021/04/25 11:46:33;;;;;;;;;;;;;;;23.64;28.69;101107.03;5098601;28;1573;-35
2021/04/25 11:49:00;;;;;;;;;;;;;;;24.12;28.06;101101.50;5099811;28;1980;-36
2021/04/25 11:51:26;;;;;;;;;;;;;;;24.13;28.25;101096.94;5099372;28;848;-36
2021/04/25 11:53:51;;;;;;;;;;;;;;;24.16;28.21;101089.44;5099828;28;740;-37
2021/04/25 11:56:29;;;;;;;;;;;;;;;24.48;27.56;101097.94;5099514;28;866;-31
2021/04/25 11:59:04;;;;;;;;;;;;;;;24.98;27.00;101094.75;5097138;28;1140;-37
2021/04/25 12:01:30;;;;;;;;;;;;;;;24.86;27.01;101086.91;5098616;28;1013;-36
2021/04/25 12:03:55;;;;;;;;;;;;;;;24.64;27.28;101085.63;5099420;28;862;-31
2021/04/25 12:06:21;;;;;;;;;;;;;;;24.52;27.44;101085.03;5099450;28;763;-41
2021/04/25 12:08:52;;;;;;;;;;;;;;;24.17;28.07;101090.31;5099219;28;1967;-32
2021/04/25 12:11:24;;;;;;;;;;;;;;;24.07;28.05;101082.28;5099864;28;1106;-32
2021/04/25 12:13:50;;;;;;;;;;;;;;;24.14;27.88;101087.91;5119695;28;770;-41
2021/04/25 12:16:19;;;;;;;;;;;;;;;24.12;28.10;101081.81;5118080;28;953;-34
2021/04/25 12:18:44;;;;;;;;;;;;;;;24.17;27.97;101074.19;5078804;28;763;-34
2021/04/25 12:21:17;;;;;;;;;;;;;;;24.23;27.65;101073.56;5078726;28;752;-33
2021/04/25 12:23:53;;;;;;;;;;;;;;;24.16;27.77;101061.69;5078793;28;819;-33
2021/04/25 12:26:19;;;;;;;;;;;;;;;24.10;28.03;101060.47;5078793;28;819;-32
2021/04/25 12:28:45;;;;;;;;;;;;;;;24.15;28.10;101060.88;5078352;28;1906;-35
2021/04/25 12:31:11;;;;;;;;;;;;;;;24.31;26.90;101054.78;5078664;28;855;-34
2021/04/25 12:33:36;;;;;;;;;;;;;;;24.22;27.05;101050.38;5097952;28;903;-36
2021/04/25 12:36:03;;;;;;;;;;;;;;;24.14;27.26;101045.72;5098288;28;817;-35
2021/04/25 12:38:31;;;;;;;;;;;;;;;24.15;25.29;101052.81;5099002;28;767;-35
2021/04/25 12:41:03;;;;;;;;;;;;;;;24.15;25.01;101042.06;5098804;28;752;-37
2021/04/25 12:43:29;;;;;;;;;;;;;;;23.90;24.68;101041.84;5098489;28;790;-33
2021/04/25 12:45:55;;;;;;;;;;;;;;;23.89;25.07;101047.38;5098615;28;1578;-37
2021/04/25 12:48:21;;;;;;;;;;;;;;;24.06;25.75;101042.97;5097101;28;1905;-39
2021/04/25 12:51:04;;;;;;;;;;;;;;;23.90;24.77;101039.16;5098348;28;1091;-36